Flight Track Log - Related Links

Times and Time Zones

All times are in EDT time to prevent confusion due to time zone crossing. See the TCF5898 flight status page for this flight to view local times or setup timezone preferences in your user account.

Time Position Orientation Groundspeed Altitude Reporting Facility
EDT Latitude Longitude Course Direction KTS MPH feet Rate Location/Type
Tue 11:37:31 AM 39.2833 -94.7333 142° Southeast 118 136 1,900  Level Kansas City TRACON
Tue 11:38:01 AM 39.2667 -94.7167 180° South 159 183 2,700 1,667 Climbing Kansas City TRACON
Tue 11:39:01 AM 39.2167 -94.7167 104° East 200 230 4,400 2,050 Climbing Kansas City TRACON
Tue 11:40:01 AM 39.2000 -94.6333 67° East 274 315 6,800 2,492 Climbing Kansas City TRACON
Tue 11:41:11 AM 39.2289 -94.5436 63° Northeast 317 365 9,800 2,215 Climbing Kansas City Center
Tue 11:42:11 AM 39.2664 -94.4469 66° East 311 358 11,600 2,350 Climbing Kansas City Center
Tue 11:43:11 AM 39.3078 -94.3261 72° East 325 374 14,500 2,450 Climbing Kansas City Center
Tue 11:44:11 AM 39.3367 -94.2108 80° East 330 380 16,500 1,950 Climbing Kansas City Center
Tue 11:45:11 AM 39.3531 -94.0953 81° East 346 398 18,400 1,850 Climbing Kansas City Center
Tue 11:46:11 AM 39.3692 -93.9664 81° East 357 411 20,200 1,900 Climbing Kansas City Center
Tue 11:47:11 AM 39.3872 -93.8186 78° East 371 427 22,200 1,750 Climbing Kansas City Center
Tue 11:48:11 AM 39.4094 -93.6786 81° East 376 433 23,700 1,600 Climbing Kansas City Center
Tue 11:49:11 AM 39.4269 -93.5414 81° East 386 444 25,400 1,550 Climbing Kansas City Center
Tue 11:50:11 AM 39.4444 -93.3906 81° East 397 457 26,800 1,250 Climbing Kansas City Center
Tue 11:51:11 AM 39.4619 -93.2478 80° East 407 468 27,900 1,100 Climbing Kansas City Center
Tue 11:52:11 AM 39.4811 -93.0997 81° East 407 468 29,000 1,000 Climbing Kansas City Center
Tue 11:53:11 AM 39.5000 -92.9486 81° East 413 475 29,900 900 Climbing Kansas City Center
Tue 11:54:11 AM 39.5186 -92.7950 82° East 419 482 30,800 750 Climbing Kansas City Center
Tue 11:55:11 AM 39.5353 -92.6439 82° East 431 496 31,400 750 Climbing Kansas City Center
Tue 11:56:11 AM 39.5533 -92.4819 82° East 431 496 32,300 800 Climbing Kansas City Center
Tue 11:57:11 AM 39.5697 -92.3386 81° East 441 507 33,000 350 Climbing Kansas City Center
Tue 11:58:11 AM 39.5897 -92.1819 85° East 441 507 33,000  Level Kansas City Center
Tue 11:59:11 AM 39.6011 -92.0253 85° East 441 507 33,000  Level Kansas City Center
Tue 12:00:11 PM 39.6122 -91.8658 85° East 446 513 33,000  Level Kansas City Center
Tue 12:01:11 PM 39.6233 -91.7039 87° East 448 516 33,000  Level Kansas City Center
Tue 12:02:11 PM 39.6300 -91.5500 86° East 441 507 33,000  Level Kansas City Center
Tue 12:03:11 PM 39.6386 -91.3933 86° East 441 507 33,000  Level Kansas City Center
Tue 12:04:11 PM 39.6467 -91.2339 86° East 441 507 33,000  Level Kansas City Center
Tue 12:05:11 PM 39.6547 -91.0719 86° East 441 507 33,000  Level Kansas City Center
Tue 12:06:11 PM 39.6625 -90.9150 86° East 441 507 33,000  Level Kansas City Center
Tue 12:07:11 PM 39.6703 -90.7583 85° East 441 507 33,000  Level Kansas City Center
Tue 12:08:11 PM 39.6814 -90.5853 86° East 441 507 33,000  Level Kansas City Center
Tue 12:09:11 PM 39.6894 -90.4472 86° East 441 507 33,000  Level Kansas City Center
Tue 12:10:11 PM 39.6967 -90.2931 86° East 434 499 33,000  Level Kansas City Center
Tue 12:11:11 PM 39.7050 -90.1225 87° East 439 505 33,000  Level Kansas City Center
Tue 12:12:11 PM 39.7100 -89.9767 88° East 433 498 33,000  Level Kansas City Center
Tue 12:13:11 PM 39.7144 -89.8225 86° East 433 498 33,000  Level Kansas City Center
Tue 12:14:11 PM 39.7231 -89.6681 87° East 433 498 33,000  Level Kansas City Center
Tue 12:15:11 PM 39.7292 -89.5139 87° East 428 493 33,000  Level Kansas City Center
Tue 12:16:11 PM 39.7350 -89.3594 87° East 423 487 33,000  Level Kansas City Center
Tue 12:17:11 PM 39.7411 -89.2078 87° East 423 487 33,000  Level Kansas City Center
Tue 12:18:11 PM 39.7467 -89.0536 87° East 423 487 33,000  Level Kansas City Center
Tue 12:19:11 PM 39.7519 -88.8994 86° East 423 487 33,000  Level Kansas City Center
Tue 12:20:11 PM 39.7592 -88.7447 88° East 423 487 33,000  Level Kansas City Center
Tue 12:21:11 PM 39.7622 -88.5906 89° East 423 487 33,000  Level Kansas City Center
Tue 12:23:13 PM 39.7672 -88.2733 87° East 415 478 33,000  Level Indianapolis Center
Tue 12:24:13 PM 39.7733 -88.1197 88° East 415 478 33,000  Level Indianapolis Center
Tue 12:25:11 PM 39.7769 -87.9686 86° East 421 484 33,000  Level Indianapolis Center
Tue 12:26:12 PM 39.7844 -87.8178 88° East 421 484 33,000  Level Indianapolis Center
Tue 12:27:13 PM 39.7878 -87.6642 89° East 421 484 33,000  Level Indianapolis Center
Tue 12:28:13 PM 39.7889 -87.5128 86° East 421 484 33,000  Level Indianapolis Center
Tue 12:29:14 PM 39.7953 -87.3781 90° East 416 479 33,000  Level Indianapolis Center
Tue 12:30:11 PM 39.7961 -87.2267 88° East 422 486 33,000 153 Level Indianapolis Center
Tue 12:31:12 PM 39.8008 -87.0703 88° East 422 486 33,300 590 Climbing Indianapolis Center
Tue 12:32:13 PM 39.8050 -86.9217 89° East 416 479 34,200 756 Climbing Indianapolis Center
Tue 12:33:11 PM 39.8072 -86.7731 89° East 421 484 34,800 403 Climbing Indianapolis Center
Tue 12:34:12 PM 39.8094 -86.6058 87° East 421 484 35,000 98 Climbing Indianapolis Center
Tue 12:35:13 PM 39.8156 -86.4519 84° East 421 484 35,000  Level Indianapolis Center
Tue 12:36:11 PM 39.8275 -86.2928 72° East 421 484 35,000  Level Indianapolis Center
Tue 12:37:11 PM 39.8664 -86.1375 76° East 430 495 35,000  Level Indianapolis Center
Tue 12:38:12 PM 39.8922 -86.0058 75° East 431 496 35,000  Level Indianapolis Center
Tue 12:39:12 PM 39.9244 -85.8500 74° East 431 496 35,000  Level Indianapolis Center
Tue 12:40:13 PM 39.9567 -85.6994 75° East 431 496 35,000  Level Indianapolis Center
Tue 12:41:25 PM 39.9931 -85.5189 75° East 431 496 35,000  Level Indianapolis Center
Tue 12:42:26 PM 40.0247 -85.3653 75° East 431 496 35,000  Level Indianapolis Center
Tue 12:43:23 PM 40.0561 -85.2142 75° East 431 496 35,000  Level Indianapolis Center
Tue 12:44:24 PM 40.0872 -85.0575 76° East 431 496 35,000  Level Indianapolis Center
Tue 12:45:24 PM 40.1186 -84.8925 74° East 431 496 35,000  Level Indianapolis Center
Tue 12:46:25 PM 40.1492 -84.7519 76° East 425 489 35,000  Level Indianapolis Center
Tue 12:47:23 PM 40.1778 -84.6003 75° East 431 496 35,000  Level Indianapolis Center
Tue 12:48:25 PM 40.2103 -84.4458 77° East 431 496 35,000  Level Indianapolis Center
Tue 12:49:25 PM 40.2383 -84.2911 75° East 431 496 35,000  Level Indianapolis Center
Tue 12:50:25 PM 40.2706 -84.1364 58° Northeast 436 502 35,000 312 Level Indianapolis Center
Tue 12:52:18 PM 40.4017 -83.8550 54° Northeast 428 493 35,900 451 Climbing Cleveland Center
Tue 12:53:18 PM 40.4675 -83.7353 58° Northeast 441 507 36,300 450 Climbing Cleveland Center
Tue 12:54:18 PM 40.5339 -83.5964 61° Northeast 446 513 36,800 350 Climbing Cleveland Center
Tue 12:55:18 PM 40.5961 -83.4489 76° East 446 513 37,000 100 Climbing Cleveland Center
Tue 12:56:18 PM 40.6247 -83.2914 80° East 440 506 37,000  Level Cleveland Center
Tue 12:57:18 PM 40.6453 -83.1336 80° East 440 506 37,000  Level Cleveland Center
Tue 12:58:18 PM 40.6700 -82.9539 81° East 450 518 37,000  Level Cleveland Center
Tue 12:59:18 PM 40.6900 -82.7903 80° East 450 518 37,000  Level Cleveland Center
Tue 01:00:18 PM 40.7117 -82.6267 80° East 445 512 37,000  Level Cleveland Center
Tue 01:01:18 PM 40.7308 -82.4819 80° East 450 518 37,000  Level Cleveland Center
Tue 01:02:18 PM 40.7522 -82.3181 81° East 445 512 37,000  Level Cleveland Center
Tue 01:03:18 PM 40.7714 -82.1569 80° East 451 519 37,000  Level Cleveland Center
Tue 01:04:18 PM 40.7944 -81.9900 82° East 451 519 37,000  Level Cleveland Center
Tue 01:05:18 PM 40.8128 -81.8258 81° East 446 513 37,000  Level Cleveland Center
Tue 01:06:18 PM 40.8333 -81.6589 79° East 446 513 37,000  Level Cleveland Center
Tue 01:07:18 PM 40.8556 -81.5000 81° East 446 513 37,000  Level Cleveland Center
Tue 01:08:18 PM 40.8756 -81.3328 81° East 446 513 37,000  Level Cleveland Center
Tue 01:09:18 PM 40.8953 -81.1681 81° East 446 513 37,000  Level Cleveland Center
Tue 01:10:18 PM 40.9169 -80.9869 80° East 446 513 37,000  Level Cleveland Center
Tue 01:11:18 PM 40.9383 -80.8250 81° East 446 513 37,000  Level Cleveland Center
Tue 01:12:18 PM 40.9572 -80.6572 81° East 446 513 37,000  Level Cleveland Center
Tue 01:13:18 PM 40.9761 -80.4897 82° East 451 519 37,000  Level Cleveland Center
Tue 01:14:18 PM 40.9944 -80.3244 82° East 451 519 37,000  Level Cleveland Center
Tue 01:15:18 PM 41.0128 -80.1567 81° East 451 519 37,000  Level Cleveland Center
Tue 01:16:18 PM 41.0308 -79.9969 82° East 451 519 37,000  Level Cleveland Center
Tue 01:17:18 PM 41.0486 -79.8314 82° East 451 519 37,000  Level Cleveland Center
Tue 01:18:18 PM 41.0642 -79.6881 82° East 445 512 37,000  Level Cleveland Center
Tue 01:19:18 PM 41.0817 -79.5225 82° East 445 512 37,000  Level Cleveland Center
Tue 01:20:18 PM 41.0989 -79.3569 82° East 445 512 37,000  Level Cleveland Center
Tue 01:21:18 PM 41.1156 -79.1969 84° East 445 512 37,000 -550 Level Cleveland Center
Tue 01:22:18 PM 41.1281 -79.0339 80° East 445 512 35,900 -1,450 Descending Cleveland Center
Tue 01:23:18 PM 41.1489 -78.8708 83° East 445 512 34,100 -1,450 Descending Cleveland Center
Tue 01:24:18 PM 41.1650 -78.7019 83° East 445 512 33,000 -550 Descending Cleveland Center
Tue 01:25:18 PM 41.1808 -78.5333 84° East 451 519 33,000  Level Cleveland Center
Tue 01:26:21 PM 41.1961 -78.3517 83° East 450 518 33,000  Level New York Center
Tue 01:27:19 PM 41.2106 -78.1878 95° East 450 518 33,000  Level New York Center
Tue 01:28:19 PM 41.1997 -78.0239 100° East 450 518 33,000  Level New York Center
Tue 01:29:20 PM 41.1783 -77.8617 99° East 450 518 33,000  Level New York Center
Tue 01:30:19 PM 41.1589 -77.6994 99° East 445 512 33,000 -250 Level New York Center
Tue 01:31:20 PM 41.1392 -77.5322 100° East 445 512 32,500 -1,180 Descending New York Center
Tue 01:32:21 PM 41.1189 -77.3758 101° East 445 512 30,600 -1,983 Descending New York Center
Tue 01:33:18 PM 41.0961 -77.2222 100° East 435 501 28,600 -1,831 Descending New York Center
Tue 01:34:19 PM 41.0753 -77.0686 100° East 430 495 27,000 -793 Descending New York Center
Tue 01:35:19 PM 41.0544 -76.9072 100° East 430 495 27,000 -400 Level New York Center
Tue 01:36:19 PM 41.0333 -76.7486 104° East 430 495 26,200 -1,339 Descending New York Center
Tue 01:37:20 PM 41.0036 -76.5919 108° East 430 495 24,300 -1,934 Descending New York Center
Tue 01:38:20 PM 40.9669 -76.4458 108° East 430 495 22,300 -2,083 Descending New York Center
Tue 01:39:21 PM 40.9322 -76.3028 107° East 416 479 20,100 -2,168 Descending New York Center
Tue 01:40:19 PM 40.9008 -76.1656 106° East 401 461 18,000 -1,815 Descending New York Center
Tue 01:41:20 PM 40.8750 -76.0483 109° East 385 443 16,500 -1,574 Descending New York Center
Tue 01:42:21 PM 40.8375 -75.9056 107° East 375 432 14,800 -1,613 Descending New York Center
Tue 01:43:19 PM 40.8111 -75.7911 108° East 368 423 13,300 -915 Descending New York Center
Tue 01:44:19 PM 40.7756 -75.6489 108° East 368 423 13,000 -149 Descending New York Center
Tue 01:45:20 PM 40.7450 -75.5261 108° East 368 423 13,000  Level New York Center
Tue 01:46:21 PM 40.7161 -75.4117 105° East 363 418 13,000  Level New York Center
Tue 01:47:19 PM 40.6900 -75.2814 106° East 363 418 13,000 -407 Level New York Center
Tue 01:48:19 PM 40.6597 -75.1453 127° Southeast 363 418 12,200 -1,139 Descending New York Center
Tue 01:49:57 PM 40.5667 -74.9833 111° Southeast 347 399 10,000 -835 Descending New York TRACON
Tue 01:50:57 PM 40.5333 -74.8667 119° Southeast 343 395 10,000  Level New York TRACON
Tue 01:51:57 PM 40.4833 -74.7500 111° Southeast 342 394 10,000  Level New York TRACON
Tue 01:52:57 PM 40.4500 -74.6333 101° East 345 397 10,000  Level New York TRACON
Tue 01:53:57 PM 40.4333 -74.5167 66° East 338 389 10,000 -474 Level New York TRACON
Tue 01:54:51 PM 40.4667 -74.4167 78° East 292 336 9,100 -1,368 Descending New York TRACON
Tue 01:55:51 PM 40.4833 -74.3167 62° Northeast 286 329 7,400 -1,050 Descending New York TRACON
Tue 01:56:51 PM 40.5167 -74.2333 75° East 262 302 7,000 -632 Descending New York TRACON
Tue 01:57:45 PM 40.5333 -74.1500 75° East 231 266 6,200 -1,150 Descending New York TRACON
Tue 01:58:51 PM 40.5500 -74.0667 27° Northeast 231 266 4,700 -1,100 Descending New York TRACON
Tue 01:59:45 PM 40.6000 -74.0333 49° Northeast 191 220 4,000 -895 Descending New York TRACON
Tue 02:00:45 PM 40.6333 -73.9833 27° Northeast 182 209 3,000 -952 Descending New York TRACON
Tue 02:01:51 PM 40.6833 -73.9500 21° North 159 183 2,000 -850 Descending New York TRACON
Tue 02:02:45 PM 40.7167 -73.9333 57° Northeast 128 147 1,300 -684 Descending New York TRACON
Tue 02:03:45 PM 40.7333 -73.9000 21° North 124 143 700 -476 Descending New York TRACON
Tue 02:04:51 PM 40.7667 -73.8833 21° North 123 142 300 -364 Descending New York TRACON

Login

Don't have an account? Register now (free) for customized features, flight alerts, and more!